Time;durP1;ratioP1;P1;durP2;ratioP2;P2;SDS_P1;SDS_P2;PMS_P1;PMS_P2;Temp;Humidity;BMP_temperature;BMP_pressure;BME280_temperature;BME280_humidity;BME280_pressure;Samples;Min_cycle;Max_cycle;Signal;HPM_P1;HPM_P2
2023/11/27 00:02:10;;;;;;;10.13;1.02;;;;;;;9.14;100.00;99486.41;4972817;28;20421;-90
2023/11/27 00:04:36;;;;;;;7.35;2.08;;;;;;;9.17;100.00;99488.78;4972670;28;20440;-89
2023/11/27 00:07:01;;;;;;;8.88;1.90;;;;;;;9.23;100.00;99484.97;4972820;28;20106;-90
2023/11/27 00:09:26;;;;;;;10.98;1.95;;;;;;;9.19;100.00;99476.63;4973051;28;20078;-90
2023/11/27 00:11:52;;;;;;;12.05;2.08;;;;;;;9.20;100.00;99473.94;4972933;28;20031;-89
2023/11/27 00:14:17;;;;;;;13.20;1.70;;;;;;;9.22;100.00;99468.72;4971443;28;20034;-90
2023/11/27 00:16:42;;;;;;;11.50;1.40;;;;;;;9.12;100.00;99471.09;4971363;28;20178;-90
2023/11/27 00:19:08;;;;;;;3.38;1.42;;;;;;;9.14;100.00;99461.47;4972711;28;20397;-90
2023/11/27 00:21:33;;;;;;;3.33;1.20;;;;;;;9.11;100.00;99466.03;4972697;28;20105;-89
2023/11/27 00:23:59;;;;;;;10.57;1.63;;;;;;;9.06;100.00;99461.19;4972766;28;20031;-89
2023/11/27 00:26:25;;;;;;;7.32;1.60;;;;;;;9.00;100.00;99456.47;4974999;28;20026;-90
2023/11/27 00:28:50;;;;;;;7.38;1.42;;;;;;;9.07;100.00;99462.00;4975993;28;20022;-90
2023/11/27 00:31:16;;;;;;;6.00;2.75;;;;;;;9.09;100.00;99444.69;4976068;28;20110;-90
2023/11/27 00:33:43;;;;;;;7.47;1.52;;;;;;;9.04;100.00;99434.72;4976386;28;20030;-90
2023/11/27 00:36:09;;;;;;;9.02;3.13;;;;;;;9.03;100.00;99443.38;4976061;28;20074;-90
2023/11/27 00:38:34;;;;;;;4.78;1.70;;;;;;;9.00;100.00;99441.84;4976112;28;20063;-89
2023/11/27 00:40:59;;;;;;;7.25;1.50;;;;;;;9.03;100.00;99439.97;4975666;28;20388;-89
2023/11/27 00:43:25;;;;;;;7.60;1.38;;;;;;;9.00;100.00;99441.84;4975619;28;20117;-90
2023/11/27 00:45:50;;;;;;;4.25;1.20;;;;;;;9.01;100.00;99432.34;4974690;28;20027;-90
2023/11/27 00:48:16;;;;;;;6.40;1.23;;;;;;;8.99;100.00;99439.34;4975635;28;20477;-90
2023/11/27 00:50:42;;;;;;;10.35;1.50;;;;;;;8.99;100.00;99435.03;4974382;28;20496;-90
2023/11/27 00:53:07;;;;;;;9.90;1.88;;;;;;;9.04;100.00;99431.31;4975643;28;20421;-89
2023/11/27 00:55:33;;;;;;;5.68;1.42;;;;;;;9.00;100.00;99436.69;4975589;28;20034;-90
2023/11/27 00:57:58;;;;;;;8.13;1.20;;;;;;;8.98;100.00;99435.13;4975384;28;20026;-89
2023/11/27 01:00:24;;;;;;;4.38;1.40;;;;;;;8.98;100.00;99428.22;4974825;28;20531;-89
2023/11/27 01:02:52;;;;;;;5.43;1.27;;;;;;;9.10;100.00;99430.94;4974246;28;20057;-90
2023/11/27 01:05:18;;;;;;;8.15;1.45;;;;;;;9.15;100.00;99423.72;4973036;28;20452;-89
2023/11/27 01:07:43;;;;;;;6.57;1.48;;;;;;;9.11;100.00;99417.13;4975006;28;20058;-89
2023/11/27 01:10:09;;;;;;;13.60;1.83;;;;;;;9.10;100.00;99420.63;4973528;28;20053;-89
2023/11/27 01:12:38;;;;;;;14.65;1.40;;;;;;;9.13;100.00;99422.97;4975177;28;20113;-91
2023/11/27 01:15:06;;;;;;;9.25;1.98;;;;;;;9.16;100.00;99415.03;4975082;28;20023;-91
2023/11/27 01:17:31;;;;;;;7.65;1.70;;;;;;;9.15;100.00;99408.25;4973596;28;20102;-91
2023/11/27 01:19:57;;;;;;;5.35;1.70;;;;;;;9.10;100.00;99400.84;4974992;28;20154;-91
2023/11/27 01:22:22;;;;;;;6.03;1.70;;;;;;;9.08;100.00;99401.88;4974229;28;20062;-91
2023/11/27 01:24:47;;;;;;;5.88;2.45;;;;;;;9.07;100.00;99406.22;4974453;28;20039;-90
2023/11/27 01:27:13;;;;;;;8.52;2.03;;;;;;;9.15;100.00;99396.22;4963467;28;20385;-90
2023/11/27 01:29:39;;;;;;;10.25;2.10;;;;;;;9.11;100.00;99383.66;4973863;28;20034;-91
2023/11/27 01:32:04;;;;;;;13.52;2.53;;;;;;;9.16;100.00;99384.16;4974721;28;20031;-91
2023/11/27 01:34:30;;;;;;;9.52;3.35;;;;;;;9.17;100.00;99388.41;4974749;28;20023;-91
2023/11/27 01:36:55;;;;;;;11.95;3.35;;;;;;;9.24;100.00;99384.44;4973489;28;20437;-91
2023/11/27 01:39:20;;;;;;;6.70;2.55;;;;;;;9.20;100.00;99385.59;4974848;28;20114;-91
2023/11/27 01:41:46;;;;;;;14.45;4.32;;;;;;;9.15;100.00;99395.41;4973216;28;20611;-91
2023/11/27 01:44:11;;;;;;;11.55;3.00;;;;;;;9.16;100.00;99389.31;4973313;28;20030;-91
2023/11/27 01:46:44;;;;;;;17.98;3.88;;;;;;;9.15;100.00;99395.41;4974951;28;20034;-91
2023/11/27 01:49:10;;;;;;;10.38;3.45;;;;;;;9.25;100.00;99387.88;4973101;28;20030;-91
2023/11/27 01:51:37;;;;;;;13.88;3.78;;;;;;;9.17;100.00;99390.97;4974451;28;20065;-91
2023/11/27 01:54:02;;;;;;;8.88;2.83;;;;;;;9.19;100.00;99383.94;4974566;28;20417;-91
2023/11/27 01:56:29;;;;;;;12.57;3.53;;;;;;;9.23;100.00;99379.41;4974316;28;20033;-91
2023/11/27 01:58:57;;;;;;;12.63;3.58;;;;;;;9.24;100.00;99375.91;4974615;28;20038;-90
2023/11/27 02:01:23;;;;;;;13.52;3.25;;;;;;;9.19;100.00;99376.22;4974354;28;20030;-91
2023/11/27 02:03:48;;;;;;;11.10;3.05;;;;;;;9.17;100.00;99370.38;4973630;28;20026;-91
2023/11/27 02:06:13;;;;;;;7.00;2.47;;;;;;;9.23;100.00;99359.63;4973899;28;20027;-91
2023/11/27 02:08:40;;;;;;;6.40;2.55;;;;;;;9.21;100.00;99361.50;4972683;28;20382;-91
2023/11/27 02:11:05;;;;;;;14.45;2.38;;;;;;;9.17;100.00;99350.59;4972498;28;20064;-91
2023/11/27 02:13:31;;;;;;;6.40;2.40;;;;;;;9.11;100.00;99350.19;4973892;28;20473;-91
2023/11/27 02:15:56;;;;;;;13.55;3.80;;;;;;;9.14;100.00;99353.34;4973948;28;20034;-91
2023/11/27 02:18:22;;;;;;;13.25;2.88;;;;;;;9.28;100.00;99349.03;4973806;28;20031;-91
2023/11/27 02:20:48;;;;;;;6.82;2.30;;;;;;;9.16;100.00;99354.09;4973902;28;20068;-91
2023/11/27 02:23:15;;;;;;;11.27;2.28;;;;;;;9.10;100.00;99343.41;4973703;28;20389;-91
2023/11/27 02:25:40;;;;;;;7.78;1.88;;;;;;;9.05;100.00;99340.31;4973882;28;20497;-91
2023/11/27 02:28:06;;;;;;;10.30;2.47;;;;;;;9.00;100.00;99341.47;4972580;28;20031;-91
2023/11/27 02:30:32;;;;;;;7.30;2.08;;;;;;;9.02;100.00;99343.09;4973846;28;20034;-91
2023/11/27 02:32:57;;;;;;;6.07;2.10;;;;;;;9.03;100.00;99337.84;4973785;28;20381;-91
2023/11/27 02:35:23;;;;;;;10.15;3.88;;;;;;;9.10;100.00;99333.09;4971959;28;20500;-91
2023/11/27 02:37:48;;;;;;;5.85;2.33;;;;;;;9.05;100.00;99324.88;4973439;28;20101;-91
2023/11/27 02:40:16;;;;;;;4.05;2.08;;;;;;;9.07;100.00;99323.84;4973304;28;20034;-91
2023/11/27 02:42:42;;;;;;;9.38;2.45;;;;;;;9.04;100.00;99323.22;4973481;28;20033;-91
2023/11/27 02:45:08;;;;;;;6.40;2.70;;;;;;;9.08;100.00;99319.53;4973538;28;20110;-90
2023/11/27 02:47:34;;;;;;;11.73;3.70;;;;;;;9.06;100.00;99306.75;4971607;28;20023;-90
2023/11/27 02:49:59;;;;;;;5.78;2.25;;;;;;;8.97;100.00;99300.50;4972727;28;20045;-90
2023/11/27 02:52:25;;;;;;;8.77;3.03;;;;;;;9.03;100.00;99301.00;4971880;28;20018;-90
2023/11/27 02:54:50;;;;;;;10.55;3.80;;;;;;;9.00;100.00;99292.56;4973422;28;20031;-90
2023/11/27 02:57:16;;;;;;;7.60;3.00;;;;;;;8.99;100.00;99284.94;4973497;28;20470;-90
2023/11/27 02:59:41;;;;;;;9.52;2.97;;;;;;;8.97;100.00;99282.47;4971896;28;20481;-90
2023/11/27 03:02:07;;;;;;;7.38;2.55;;;;;;;9.00;100.00;99277.13;4973151;28;20456;-90
2023/11/27 03:04:34;;;;;;;8.68;3.40;;;;;;;9.20;100.00;99274.91;4972845;28;20023;-90
2023/11/27 03:07:00;;;;;;;9.50;3.33;;;;;;;9.10;100.00;99289.34;4973287;28;20039;-90
2023/11/27 03:09:26;;;;;;;10.02;3.97;;;;;;;9.16;100.00;99281.19;4973237;28;20037;-91
2023/11/27 03:11:51;;;;;;;10.45;3.80;;;;;;;8.98;100.00;99271.25;4973290;28;20034;-91
2023/11/27 03:14:17;;;;;;;6.03;3.17;;;;;;;8.92;100.00;99263.94;4973370;28;20031;-90
2023/11/27 03:16:42;;;;;;;8.80;3.38;;;;;;;8.97;100.00;99261.91;4973559;28;20062;-91
2023/11/27 03:19:07;;;;;;;8.65;4.50;;;;;;;8.93;100.00;99259.63;4972630;28;20113;-90
2023/11/27 03:21:35;;;;;;;8.52;3.33;;;;;;;9.07;100.00;99258.66;4971831;28;20091;-90
2023/11/27 03:24:00;;;;;;;14.40;3.42;;;;;;;9.07;100.00;99253.50;4973049;28;20441;-90
2023/11/27 03:26:26;;;;;;;8.40;4.32;;;;;;;9.03;100.00;99249.53;4972952;28;20029;-90
2023/11/27 03:28:51;;;;;;;8.27;3.72;;;;;;;8.98;100.00;99250.66;4972750;28;20034;-90
2023/11/27 03:31:16;;;;;;;7.15;3.35;;;;;;;8.98;100.00;99248.09;4973153;28;20509;-90
2023/11/27 03:33:42;;;;;;;9.70;4.00;;;;;;;8.95;100.00;99238.00;4972772;28;20457;-90
2023/11/27 03:36:07;;;;;;;8.55;3.70;;;;;;;8.99;100.00;99244.56;4972927;28;20062;-90
2023/11/27 03:38:33;;;;;;;11.65;3.47;;;;;;;8.91;100.00;99233.19;4972897;28;20026;-90
2023/11/27 03:40:59;;;;;;;7.10;3.80;;;;;;;8.92;100.00;99243.34;4972984;28;20401;-90
2023/11/27 03:43:24;;;;;;;12.40;4.80;;;;;;;8.85;100.00;99231.88;4972774;28;20050;-90
2023/11/27 03:45:49;;;;;;;7.57;3.42;;;;;;;8.91;100.00;99239.16;4973017;28;20023;-90
2023/11/27 03:48:15;;;;;;;12.48;4.13;;;;;;;8.89;100.00;99224.75;4972947;28;20035;-90
2023/11/27 03:50:41;;;;;;;5.43;3.65;;;;;;;8.92;100.00;99239.97;4973223;28;20143;-90
2023/11/27 03:53:06;;;;;;;7.82;3.72;;;;;;;8.97;100.00;99232.75;4971739;28;20565;-90
2023/11/27 03:55:32;;;;;;;7.53;4.68;;;;;;;8.92;100.00;99243.34;4972918;28;20027;-90
2023/11/27 03:57:57;;;;;;;8.70;3.80;;;;;;;8.88;100.00;99236.78;4972644;28;20078;-90
2023/11/27 04:00:23;;;;;;;10.57;3.70;;;;;;;8.81;100.00;99217.56;4975178;28;20077;-90
2023/11/27 04:02:49;;;;;;;7.47;3.88;;;;;;;8.94;100.00;99225.25;4976471;28;20047;-90
2023/11/27 04:05:15;;;;;;;5.63;3.58;;;;;;;8.90;100.00;99229.78;4976717;28;20027;-91
2023/11/27 04:07:41;;;;;;;9.85;3.80;;;;;;;8.79;100.00;99211.69;4976991;28;20030;-90
2023/11/27 04:10:07;;;;;;;6.95;3.40;;;;;;;8.86;100.00;99206.97;4976512;28;20023;-90
2023/11/27 04:12:32;;;;;;;10.68;3.50;;;;;;;8.91;100.00;99204.88;4975256;28;20034;-90
2023/11/27 04:14:59;;;;;;;5.43;3.70;;;;;;;8.86;100.00;99202.63;4976301;28;20023;-90
2023/11/27 04:17:24;;;;;;;8.38;3.63;;;;;;;8.91;100.00;99204.88;4976398;28;20469;-90
2023/11/27 04:19:50;;;;;;;8.15;3.90;;;;;;;8.88;100.00;99203.34;4975131;28;20038;-90
2023/11/27 04:22:15;;;;;;;6.65;3.97;;;;;;;8.93;100.00;99200.44;4976082;28;20023;-90
2023/11/27 04:24:41;;;;;;;6.88;4.55;;;;;;;8.89;100.00;99202.41;4974492;28;20035;-90
2023/11/27 04:27:06;;;;;;;6.25;3.65;;;;;;;8.91;100.00;99192.00;4974886;28;20105;-90
2023/11/27 04:29:31;;;;;;;7.55;3.70;;;;;;;8.99;100.00;99190.53;4975956;28;20031;-90
2023/11/27 04:31:57;;;;;;;5.43;3.90;;;;;;;8.92;100.00;99186.75;4976059;28;20106;-90
2023/11/27 04:34:22;;;;;;;7.20;4.07;;;;;;;8.86;100.00;99187.19;4975488;28;20046;-90
2023/11/27 04:36:48;;;;;;;7.03;3.80;;;;;;;8.92;100.00;99189.31;4975941;28;20027;-90
2023/11/27 04:39:14;;;;;;;11.25;5.07;;;;;;;8.89;100.00;99178.44;4975546;28;20034;-90
2023/11/27 04:41:43;;;;;;;8.98;4.43;;;;;;;8.87;100.00;99188.81;4974478;28;20045;-90
2023/11/27 04:44:09;;;;;;;11.23;3.80;;;;;;;8.83;100.00;99181.41;4974343;28;20505;-90
2023/11/27 04:46:35;;;;;;;12.50;5.80;;;;;;;8.89;100.00;99176.66;4975435;28;20042;-90
2023/11/27 04:49:00;;;;;;;13.35;6.78;;;;;;;8.88;100.00;99180.19;4975564;28;20026;-90
2023/11/27 04:51:27;;;;;;;12.63;7.18;;;;;;;8.84;100.00;99168.47;4975933;28;20033;-90
2023/11/27 04:53:52;;;;;;;10.90;7.18;;;;;;;8.92;100.00;99161.00;4974259;28;20030;-90
2023/11/27 04:56:18;;;;;;;14.38;7.93;;;;;;;8.91;100.00;99164.53;4975568;28;20516;-90
2023/11/27 04:58:43;;;;;;;11.45;7.22;;;;;;;8.88;100.00;99154.47;4975169;28;20030;-90
2023/11/27 05:01:09;;;;;;;13.15;7.50;;;;;;;8.85;100.00;99154.69;4975138;28;20023;-91
2023/11/27 05:03:34;;;;;;;13.60;8.18;;;;;;;8.91;100.00;99151.66;4975131;28;20031;-90
2023/11/27 05:06:00;;;;;;;10.40;7.50;;;;;;;8.90;100.00;99144.88;4973413;28;20058;-90
2023/11/27 05:08:25;;;;;;;13.95;8.30;;;;;;;8.87;100.00;99147.66;4975036;28;20082;-90
2023/11/27 05:10:51;;;;;;;13.55;7.32;;;;;;;8.95;100.00;99149.72;4974410;28;20468;-90
2023/11/27 05:13:16;;;;;;;10.07;6.05;;;;;;;8.89;100.00;99147.56;4975018;28;20455;-90
2023/11/27 05:15:42;;;;;;;16.67;7.00;;;;;;;9.00;100.00;99148.44;4975121;28;20540;-90
2023/11/27 05:18:07;;;;;;;11.80;6.82;;;;;;;9.00;100.00;99145.88;4973773;28;20058;-90
2023/11/27 05:20:33;;;;;;;9.95;6.75;;;;;;;8.96;100.00;99144.44;4974684;28;20031;-90
2023/11/27 05:23:02;;;;;;;10.38;6.32;;;;;;;8.97;100.00;99135.78;4974850;28;20034;-90
2023/11/27 05:25:28;;;;;;;9.23;6.03;;;;;;;8.92;100.00;99143.00;4974953;28;20031;-90
2023/11/27 05:27:53;;;;;;;11.65;6.38;;;;;;;8.87;100.00;99127.06;4974783;28;20446;-90
2023/11/27 05:30:21;;;;;;;9.40;5.93;;;;;;;8.82;100.00;99124.00;4974980;28;20034;-90
2023/11/27 05:32:47;;;;;;;11.38;5.85;;;;;;;8.82;100.00;99124.00;4975250;28;20385;-90
2023/11/27 05:35:13;;;;;;;14.32;6.50;;;;;;;8.85;100.00;99123.81;4974332;28;20491;-90
2023/11/27 05:37:38;;;;;;;13.30;7.03;;;;;;;8.86;100.00;99125.44;4975105;28;20504;-90
2023/11/27 05:40:06;;;;;;;9.38;6.63;;;;;;;8.81;100.00;99117.22;4974861;28;20521;-90
2023/11/27 05:42:38;;;;;;;11.55;7.25;;;;;;;8.91;100.00;99122.53;4973340;28;20054;-90
2023/11/27 05:45:04;;;;;;;;;;;;;;;8.86;100.00;99119.47;4975209;28;20023;-90
2023/11/27 05:47:30;;;;;;;14.95;7.00;;;;;;;8.79;100.00;99119.09;4974740;28;19921;-91
2023/11/27 05:49:56;;;;;;;8.93;6.63;;;;;;;8.78;100.00;99102.84;4973105;28;20492;-90
2023/11/27 05:52:21;;;;;;;11.77;6.63;;;;;;;8.78;100.00;99104.59;4974357;28;20062;-90
2023/11/27 05:54:47;;;;;;;15.45;6.60;;;;;;;8.80;100.00;99105.28;4973424;28;20019;-90
2023/11/27 05:57:13;;;;;;;11.95;5.97;;;;;;;8.80;100.00;99095.00;4974465;28;20084;-91
2023/11/27 05:59:38;;;;;;;10.65;5.80;;;;;;;8.72;100.00;99097.28;4974226;28;20031;-90
2023/11/27 06:02:03;;;;;;;7.40;4.80;;;;;;;8.81;100.00;99101.78;4973375;28;20118;-90
2023/11/27 06:04:29;;;;;;;14.13;4.80;;;;;;;8.82;100.00;99098.28;4974276;28;20121;-90
2023/11/27 06:06:54;;;;;;;7.88;4.00;;;;;;;8.78;100.00;99092.53;4974495;28;20046;-90
2023/11/27 06:09:21;;;;;;;7.75;3.85;;;;;;;8.82;100.00;99092.31;4972944;28;20033;-91
2023/11/27 06:11:47;;;;;;;6.78;3.53;;;;;;;8.79;100.00;99095.94;4973916;28;20393;-90
2023/11/27 06:14:12;;;;;;;9.10;3.80;;;;;;;8.85;100.00;99092.94;4974162;28;20030;-90
2023/11/27 06:16:38;;;;;;;11.02;3.30;;;;;;;8.84;100.00;99096.41;4973992;28;20023;-90
2023/11/27 06:19:06;;;;;;;6.05;3.20;;;;;;;8.80;100.00;99089.84;4972729;28;20436;-90
2023/11/27 06:21:31;;;;;;;11.45;2.67;;;;;;;8.85;100.00;99074.94;4974113;28;20022;-90
2023/11/27 06:23:56;;;;;;;5.95;2.90;;;;;;;8.83;100.00;99066.50;4973615;28;20503;-90
2023/11/27 06:26:22;;;;;;;4.88;2.55;;;;;;;8.75;100.00;99055.91;4974202;28;20109;-90
2023/11/27 06:28:47;;;;;;;4.55;2.50;;;;;;;8.79;100.00;99067.63;4973785;28;20054;-91
2023/11/27 06:31:13;;;;;;;4.68;2.60;;;;;;;8.77;100.00;99059.19;4973835;28;20378;-90
2023/11/27 06:33:38;;;;;;;5.13;3.17;;;;;;;8.77;100.00;99060.00;4972364;28;20019;-90
2023/11/27 06:36:04;;;;;;;6.97;3.03;;;;;;;8.70;100.00;99050.28;4973962;28;20026;-91
2023/11/27 06:38:30;;;;;;;6.28;2.50;;;;;;;8.66;100.00;99046.31;4973819;28;20033;-91
2023/11/27 06:40:55;;;;;;;7.93;3.25;;;;;;;8.77;100.00;99043.75;4972593;28;20027;-91
2023/11/27 06:43:21;;;;;;;9.63;2.53;;;;;;;8.75;100.00;99046.47;4972074;28;20097;-91
2023/11/27 06:45:47;;;;;;;5.55;2.40;;;;;;;8.65;100.00;99039.50;4973580;28;20035;-90
2023/11/27 06:48:12;;;;;;;4.10;2.63;;;;;;;8.66;100.00;99036.03;4973585;28;20039;-90
2023/11/27 06:50:38;;;;;;;6.78;3.20;;;;;;;8.66;100.00;99026.53;4973296;28;20035;-91
2023/11/27 06:53:03;;;;;;;6.28;3.30;;;;;;;8.61;100.00;99020.91;4973606;28;20385;-91
2023/11/27 06:55:29;;;;;;;9.73;3.05;;;;;;;8.78;100.00;99019.69;4972310;28;20026;-90
2023/11/27 06:57:54;;;;;;;7.50;2.90;;;;;;;8.67;100.00;99015.31;4972261;28;20109;-90
2023/11/27 07:00:20;;;;;;;10.30;3.13;;;;;;;8.61;100.00;99017.50;4973674;28;20042;-91
2023/11/27 07:02:45;;;;;;;8.80;3.13;;;;;;;8.57;100.00;99012.59;4973274;28;20097;-90
2023/11/27 07:05:11;;;;;;;6.95;2.58;;;;;;;8.64;100.00;99018.13;4973519;28;20034;-91
2023/11/27 07:07:36;;;;;;;6.75;3.08;;;;;;;8.62;100.00;99014.00;4971939;28;20050;-90
2023/11/27 07:10:02;;;;;;;8.20;3.22;;;;;;;8.59;100.00;99016.81;4972090;28;20026;-90
2023/11/27 07:12:28;;;;;;;6.57;3.40;;;;;;;8.57;100.00;99011.78;4973399;28;20031;-90
2023/11/27 07:14:54;;;;;;;9.00;3.45;;;;;;;8.51;100.00;99010.47;4973054;28;20552;-90
2023/11/27 07:17:20;;;;;;;4.47;2.75;;;;;;;8.47;100.00;99011.59;4973337;28;20025;-91
2023/11/27 07:19:46;;;;;;;7.20;3.50;;;;;;;8.47;100.00;99019.31;4971956;28;20442;-91
2023/11/27 07:22:11;;;;;;;5.18;3.35;;;;;;;8.41;100.00;99014.59;4973004;28;20039;-90
2023/11/27 07:24:37;;;;;;;5.50;3.28;;;;;;;8.35;100.00;99008.13;4971313;28;20027;-90
2023/11/27 07:27:04;;;;;;;8.77;3.15;;;;;;;8.44;100.00;99016.97;4973140;28;20078;-91
2023/11/27 07:29:29;;;;;;;10.85;3.30;;;;;;;8.35;100.00;99015.03;4973007;28;20394;-90
2023/11/27 07:31:55;;;;;;;5.43;3.67;;;;;;;8.39;100.00;99007.91;4973264;28;20030;-90
2023/11/27 07:34:21;;;;;;;7.00;3.25;;;;;;;8.32;100.00;99008.34;4973782;28;20481;-90
2023/11/27 07:36:47;;;;;;;7.60;3.58;;;;;;;8.45;100.00;98998.03;4977278;28;20101;-91
2023/11/27 07:39:12;;;;;;;5.45;3.17;;;;;;;8.42;100.00;99003.41;4975379;28;20457;-91
2023/11/27 07:41:38;;;;;;;6.70;3.78;;;;;;;8.38;100.00;99004.50;4974129;28;20090;-91
2023/11/27 07:44:04;;;;;;;4.13;3.60;;;;;;;8.32;100.00;98997.25;4974718;28;20033;-90
2023/11/27 07:46:29;;;;;;;7.75;4.50;;;;;;;8.18;100.00;98989.69;4973614;28;20285;-91
2023/11/27 07:48:55;;;;;;;8.13;4.10;;;;;;;8.18;100.00;98992.28;4976647;28;20054;-91
2023/11/27 07:51:20;;;;;;;10.88;4.57;;;;;;;8.13;100.00;98988.25;4982996;28;20074;-91
2023/11/27 07:53:47;;;;;;;6.93;3.42;;;;;;;8.09;100.00;98986.00;4975053;28;20026;-90
2023/11/27 07:56:13;;;;;;;4.35;3.30;;;;;;;8.03;100.00;98984.72;4976728;28;20069;-91
2023/11/27 07:58:41;;;;;;;5.45;3.65;;;;;;;8.08;100.00;98982.63;4991293;28;20043;-90
2023/11/27 08:01:07;;;;;;;5.32;3.75;;;;;;;8.02;100.00;98984.81;4976197;28;20026;-91
2023/11/27 08:03:35;;;;;;;5.63;3.85;;;;;;;7.98;100.00;98983.41;4976393;28;20037;-91
2023/11/27 08:06:01;;;;;;;8.48;3.97;;;;;;;7.98;100.00;98979.06;4976511;28;20500;-90
2023/11/27 08:08:26;;;;;;;9.98;4.03;;;;;;;8.00;100.00;98981.50;4976682;28;20066;-91
2023/11/27 08:10:51;;;;;;;6.75;4.45;;;;;;;7.95;100.00;98992.16;4976494;28;20390;-91
2023/11/27 08:13:17;;;;;;;9.90;3.97;;;;;;;7.90;100.00;98987.31;4974595;28;20046;-90
2023/11/27 08:15:43;;;;;;;10.65;4.05;;;;;;;7.91;100.00;98990.69;4976005;28;20388;-91
2023/11/27 08:18:08;;;;;;;6.40;4.55;;;;;;;7.96;100.00;98991.19;4976110;28;20034;-91
2023/11/27 08:20:37;;;;;;;10.98;5.05;;;;;;;7.92;100.00;98984.63;4976112;28;20042;-91
2023/11/27 08:23:03;;;;;;;7.03;4.60;;;;;;;7.93;100.00;98991.41;4976142;28;20495;-91
2023/11/27 08:25:29;;;;;;;8.57;4.50;;;;;;;8.03;100.00;98991.59;4975423;28;20026;-89
2023/11/27 08:27:55;;;;;;;6.72;4.10;;;;;;;8.10;100.00;98985.09;4975985;28;20045;-89
2023/11/27 08:30:22;;;;;;;12.27;5.03;;;;;;;8.09;100.00;98981.69;4976548;28;20030;-89
2023/11/27 08:32:48;;;;;;;14.18;5.00;;;;;;;8.25;100.00;98975.47;4975265;28;20035;-90
2023/11/27 08:35:14;;;;;;;10.85;5.10;;;;;;;8.36;100.00;98988.38;4975627;28;20034;-89
2023/11/27 08:37:40;;;;;;;11.30;4.25;;;;;;;8.31;100.00;98985.31;4975864;28;20432;-90
2023/11/27 08:40:07;;;;;;;9.45;4.53;;;;;;;8.36;100.00;98988.38;4975490;28;20038;-91
2023/11/27 08:42:37;;;;;;;9.48;5.00;;;;;;;8.41;100.00;98990.66;4974457;28;20022;-90
2023/11/27 08:45:10;;;;;;;8.90;4.22;;;;;;;8.36;100.00;98983.22;4974568;28;20027;-90
2023/11/27 08:47:39;;;;;;;9.13;4.53;;;;;;;8.34;100.00;98991.06;4974495;28;20034;-90
2023/11/27 08:50:07;;;;;;;11.63;4.22;;;;;;;8.38;100.00;98980.56;4974135;28;20030;-90
2023/11/27 08:52:32;;;;;;;9.48;4.10;;;;;;;8.39;100.00;98972.75;4975861;28;20113;-90
2023/11/27 08:54:58;;;;;;;10.82;4.18;;;;;;;8.42;100.00;98977.69;4975714;28;20529;-90
2023/11/27 08:57:24;;;;;;;6.88;3.85;;;;;;;8.44;100.00;98975.84;4973243;28;20101;-90
2023/11/27 08:59:50;;;;;;;9.00;4.32;;;;;;;8.53;100.00;98985.47;4975663;28;20043;-91
2023/11/27 09:02:16;;;;;;;10.43;4.57;;;;;;;8.54;100.00;98981.97;4975901;28;20034;-90
2023/11/27 09:04:41;;;;;;;6.07;3.83;;;;;;;8.57;100.00;98976.59;4975271;28;20019;-90
2023/11/27 09:07:07;;;;;;;11.68;3.58;;;;;;;8.68;100.00;98982.69;4975581;28;20029;-91
2023/11/27 09:09:33;;;;;;;7.03;3.47;;;;;;;8.72;100.00;98984.13;4975514;28;20023;-89
2023/11/27 09:11:59;;;;;;;6.68;3.72;;;;;;;8.73;100.00;98972.88;4974230;28;20023;-90
2023/11/27 09:14:25;;;;;;;7.70;3.55;;;;;;;8.81;100.00;98974.91;4974000;28;20065;-90
2023/11/27 09:16:51;;;;;;;7.43;3.08;;;;;;;8.83;100.00;98976.44;4973961;28;20474;-90
2023/11/27 09:19:16;;;;;;;10.73;3.22;;;;;;;8.86;100.00;98965.91;4975286;28;20026;-90
2023/11/27 09:21:42;;;;;;;4.85;2.80;;;;;;;8.92;100.00;98968.03;4974893;28;20037;-90
2023/11/27 09:24:08;;;;;;;5.88;2.75;;;;;;;8.98;100.00;98965.00;4973820;28;20033;-91
2023/11/27 09:26:33;;;;;;;6.38;3.00;;;;;;;8.98;100.00;98965.00;4975263;28;20022;-90
2023/11/27 09:28:59;;;;;;;7.30;3.08;;;;;;;9.03;100.00;98962.09;4975148;28;20393;-90
2023/11/27 09:31:26;;;;;;;9.93;3.38;;;;;;;9.04;100.00;98963.72;4975162;28;20023;-90
2023/11/27 09:33:52;;;;;;;6.50;3.00;;;;;;;9.10;100.00;98959.88;4973577;28;20532;-91
2023/11/27 09:36:17;;;;;;;3.88;2.70;;;;;;;9.12;100.00;98964.00;4974953;28;20035;-90
2023/11/27 09:38:43;;;;;;;6.55;3.05;;;;;;;9.19;100.00;98960.03;4975061;28;20393;-91
2023/11/27 09:41:09;;;;;;;4.95;2.80;;;;;;;9.23;100.00;98952.88;4974972;28;20465;-91
2023/11/27 09:43:36;;;;;;;9.60;3.85;;;;;;;9.33;100.00;98953.00;4973611;28;20093;-90
2023/11/27 09:46:06;;;;;;;6.75;2.90;;;;;;;9.27;100.00;98951.72;4974966;28;20038;-90
2023/11/27 09:48:34;;;;;;;5.30;3.03;;;;;;;9.29;100.00;98954.16;4974695;28;20493;-90
2023/11/27 09:51:06;;;;;;;9.65;2.55;;;;;;;9.34;100.00;98955.47;4973385;28;20077;-90
2023/11/27 09:53:40;;;;;;;8.73;2.40;;;;;;;9.30;100.00;98969.50;4974546;28;20400;-90
2023/11/27 09:56:10;;;;;;;6.57;3.00;;;;;;;9.27;100.00;98956.84;4974672;28;20082;-91
2023/11/27 09:58:42;;;;;;;6.88;2.42;;;;;;;9.31;100.00;98965.97;4974026;28;20113;-91
2023/11/27 10:01:10;;;;;;;10.10;2.53;;;;;;;9.35;100.00;98958.84;4973393;28;20023;-90
2023/11/27 10:03:38;;;;;;;5.72;2.42;;;;;;;9.20;100.00;98963.41;4972935;28;20027;-91
2023/11/27 10:06:06;;;;;;;5.57;2.33;;;;;;;9.23;100.00;98959.78;4974306;28;20496;-90
2023/11/27 10:08:31;;;;;;;5.78;2.20;;;;;;;9.23;100.00;98952.06;4974147;28;20033;-90
2023/11/27 10:10:57;;;;;;;2.60;2.25;;;;;;;9.28;100.00;98953.34;4974215;28;20385;-91
2023/11/27 10:13:34;;;;;;;6.05;2.47;;;;;;;9.30;100.00;98953.22;4972934;28;20461;-90
2023/11/27 10:16:02;;;;;;;6.40;2.50;;;;;;;9.20;100.00;98943.63;4974232;28;20038;-90
2023/11/27 10:18:28;;;;;;;7.80;1.98;;;;;;;9.20;100.00;98950.53;4974085;28;20026;-90
2023/11/27 10:20:54;;;;;;;6.25;2.22;;;;;;;9.40;100.00;98947.25;4974053;28;20023;-90
2023/11/27 10:23:20;;;;;;;10.20;3.85;;;;;;;9.67;100.00;98945.25;4973737;28;20069;-90
2023/11/27 10:25:55;;;;;;;6.85;2.63;;;;;;;10.25;100.00;98951.78;4973668;28;20362;-90
2023/11/27 10:28:21;;;;;;;6.00;2.60;;;;;;;11.01;100.00;98940.53;4972767;28;20081;-90
2023/11/27 10:30:47;;;;;;;2.30;1.90;;;;;;;12.26;100.00;98939.28;4974096;28;20027;-91
2023/11/27 10:33:14;;;;;;;5.68;1.90;;;;;;;12.39;100.00;98939.84;4972893;28;20023;-91
2023/11/27 10:35:41;;;;;;;2.38;1.55;;;;;;;12.96;100.00;98934.72;4974129;28;20048;-91
2023/11/27 10:38:15;;;;;;;2.85;1.60;;;;;;;14.00;100.00;98929.38;4974153;28;20362;-91
2023/11/27 10:40:40;;;;;;;2.38;1.50;;;;;;;14.26;100.00;98933.81;4972868;28;20035;-91
2023/11/27 10:43:09;;;;;;;2.03;1.17;;;;;;;14.85;98.14;98934.97;4973741;28;20027;-91
2023/11/27 10:45:35;;;;;;;2.50;0.80;;;;;;;13.16;100.00;98924.31;4973550;28;20100;-91
2023/11/27 10:48:02;;;;;;;4.38;1.10;;;;;;;13.73;100.00;98932.84;4972244;28;20386;-91
2023/11/27 10:50:32;;;;;;;1.38;0.90;;;;;;;15.61;97.31;98923.00;4973603;28;20527;-91
2023/11/27 10:52:58;;;;;;;2.20;1.20;;;;;;;15.82;90.60;98918.19;4973483;28;20029;-91
2023/11/27 10:55:26;;;;;;;3.88;1.20;;;;;;;16.67;87.27;98923.16;4973399;28;20027;-91
2023/11/27 10:57:54;;;;;;;4.90;0.93;;;;;;;17.35;82.76;98910.63;4973255;28;20034;-92
2023/11/27 11:00:29;;;;;;;2.35;1.00;;;;;;;16.53;84.42;98908.19;4971858;28;20405;-92
2023/11/27 11:03:01;;;;;;;2.85;0.70;;;;;;;14.39;94.56;98913.50;4973458;28;20113;-92
2023/11/27 11:05:35;;;;;;;1.58;0.85;;;;;;;13.78;100.00;98898.69;4973293;28;20077;-92
2023/11/27 11:08:03;;;;;;;1.35;0.80;;;;;;;13.36;100.00;98897.38;4973205;28;20094;-92
2023/11/27 11:10:31;;;;;;;3.58;0.80;;;;;;;12.91;100.00;98900.69;4972982;28;20027;-92
2023/11/27 11:13:00;;;;;;;2.55;0.90;;;;;;;12.85;100.00;98901.25;4973113;28;20058;-92
2023/11/27 11:15:40;;;;;;;2.53;1.05;;;;;;;12.49;100.00;98901.03;4973370;28;20018;-91
2023/11/27 11:18:24;;;;;;;2.88;0.80;;;;;;;12.29;100.00;98897.66;4973191;28;20113;-92
2023/11/27 11:21:09;;;;;;;6.78;0.80;;;;;;;11.74;100.00;98889.53;4973089;28;20023;-90
2023/11/27 11:24:02;;;;;;;4.45;0.90;;;;;;;11.31;100.00;98890.66;4972852;28;20558;-91
2023/11/27 11:26:44;;;;;;;2.20;0.90;;;;;;;11.53;100.00;98887.88;4973124;28;20048;-91
2023/11/27 11:29:18;;;;;;;7.13;1.35;;;;;;;11.97;100.00;98879.78;4973246;28;20019;-91